createdAt,value
2023-05-04T05:02:02.976Z,96923.78
2023-05-04T05:03:04.884Z,96940.75
2023-05-04T07:10:16.107Z,96919.25
2023-05-04T07:11:18.286Z,96924.03
2023-05-04T07:12:20.182Z,96936.31
2023-05-04T07:13:21.688Z,96939.59
2023-05-04T07:14:23.109Z,96939.06
2023-05-04T07:15:24.589Z,96930.38
2023-05-04T07:16:26.353Z,96925.53
2023-05-04T07:17:27.973Z,96938.41
2023-05-04T07:18:29.422Z,96941.31
2023-05-04T07:19:30.863Z,96940.81
2023-05-04T07:20:32.476Z,96936.72
2023-05-04T07:21:33.981Z,96943.28
2023-05-04T07:22:35.536Z,96937.91
2023-05-04T07:23:37.633Z,96947.16
2023-05-04T07:24:39.106Z,96936.91
2023-05-04T07:25:40.489Z,96942.31
2023-05-04T07:26:42.065Z,96941.28
2023-05-04T07:27:45.045Z,96939.66
2023-05-04T07:28:46.745Z,96933.28
2023-05-04T07:29:48.257Z,96901.31
2023-05-04T07:30:49.674Z,96943.38
2023-05-04T07:31:51.044Z,96936.72
2023-05-04T07:32:52.763Z,96933.97
2023-05-04T07:33:54.265Z,96930.09
2023-05-04T07:34:56.457Z,96930.41
2023-05-04T07:35:59.043Z,96919.19
2023-05-04T07:37:00.435Z,96938.25
2023-05-04T07:38:02.725Z,96940.03
2023-05-04T07:39:04.235Z,96929.34
2023-05-04T07:40:07.624Z,96928.59
2023-05-04T07:41:09.281Z,96932.91
2023-05-04T07:42:13.663Z,96939.09
2023-05-04T07:43:15.189Z,96938.50
2023-05-04T07:44:16.584Z,96931.19
2023-05-04T07:45:18.105Z,96932.59
2023-05-04T07:46:19.545Z,96932.16
2023-05-04T07:47:20.914Z,96925.44
2023-05-04T07:48:23.426Z,96923.75
2023-05-04T07:49:27.608Z,96933.28
2023-05-04T07:50:29.290Z,96935.06
2023-05-04T07:51:31.083Z,96930.72
2023-05-04T07:52:33.111Z,96913.84
2023-05-04T07:53:34.511Z,96922.06
2023-05-04T07:54:36.506Z,96926.88
2023-05-04T07:55:38.085Z,96921.81
2023-05-04T07:56:39.446Z,96916.47
2023-05-04T07:57:41.246Z,96921.50
2023-05-04T07:58:42.704Z,96916.97
2023-05-04T07:59:44.060Z,96906.59
2023-05-04T08:00:45.800Z,96916.53
2023-05-04T08:01:47.510Z,96926.44
2023-05-04T08:02:49.682Z,96916.41
2023-05-04T08:03:51.176Z,96926.53
2023-05-04T08:04:52.581Z,96923.19
2023-05-04T08:05:53.947Z,96909.47
2023-05-04T08:06:55.436Z,96925.50
2023-05-04T08:07:56.841Z,96910.16
2023-05-04T08:08:58.179Z,96920.53
2023-05-04T08:09:59.679Z,96921.16
2023-05-04T08:11:16.027Z,96921.81
2023-05-04T08:12:21.344Z,96914.88
2023-05-04T08:13:22.846Z,96909.50
2023-05-04T08:14:24.213Z,96908.53
2023-05-04T08:15:25.704Z,96920.00
2023-05-04T08:16:29.189Z,96912.00
2023-05-04T08:17:30.714Z,96911.81
2023-05-04T08:18:32.306Z,96907.94
2023-05-04T08:19:33.955Z,96912.97
2023-05-04T08:20:35.367Z,96911.88
2023-05-04T08:21:36.833Z,96910.81
2023-05-04T08:22:38.789Z,96906.13
2023-05-04T08:23:40.461Z,96903.72
2023-05-04T08:24:41.885Z,96905.69
2023-05-04T08:25:43.304Z,96911.91
2023-05-04T08:26:49.580Z,96902.03
2023-05-04T08:27:53.981Z,96908.72
2023-05-04T08:29:05.806Z,96914.41
2023-05-04T08:30:08.377Z,96909.66
2023-05-04T08:31:09.841Z,96900.50
2023-05-04T08:32:11.243Z,96894.03
2023-05-04T08:33:12.733Z,96898.78
2023-05-04T08:34:14.254Z,96902.19
2023-05-04T08:35:15.754Z,96908.28
2023-05-04T08:36:17.524Z,96908.06
2023-05-04T08:37:20.058Z,96906.59
2023-05-04T08:38:21.529Z,96900.06
2023-05-04T08:39:23.061Z,96905.94
2023-05-04T08:40:24.591Z,96905.97
2023-05-04T08:41:25.981Z,96903.94
2023-05-04T08:42:31.700Z,96899.91
2023-05-04T08:43:37.210Z,96894.44
2023-05-04T08:44:38.632Z,96901.31
2023-05-04T08:45:40.889Z,96898.69
2023-05-04T08:46:43.094Z,96897.63
2023-05-04T08:47:45.000Z,96900.97
2023-05-04T08:48:47.171Z,96880.50
2023-05-04T08:49:48.709Z,96897.38
2023-05-04T08:52:07.694Z,96893.44
2023-05-04T08:53:13.183Z,96900.50
2023-05-04T08:54:16.204Z,96902.50
2023-05-04T08:56:51.190Z,96880.19
2023-05-04T08:57:53.666Z,96891.72
2023-05-04T08:59:01.584Z,96892.31
2023-05-04T09:01:42.962Z,96895.94
2023-05-04T09:02:46.629Z,96901.53
2023-05-04T09:03:49.242Z,96905.53
2023-05-04T09:06:33.103Z,96898.50
2023-05-04T09:07:34.953Z,96902.25
2023-05-04T09:08:36.512Z,96902.50
2023-05-04T09:09:38.063Z,96900.06
2023-05-04T09:12:27.003Z,96869.09
2023-05-04T09:13:28.381Z,96886.09
2023-05-04T09:14:34.576Z,96883.16
2023-05-04T09:15:36.354Z,96881.81
2023-05-04T09:16:38.067Z,96877.53
2023-05-04T09:19:33.808Z,96886.81
2023-05-04T09:20:49.318Z,96877.66
2023-05-04T09:21:54.344Z,96874.81
2023-05-04T09:23:07.357Z,96884.47
2023-05-04T09:24:08.897Z,96875.75
2023-05-04T09:25:12.618Z,96884.13
2023-05-04T09:28:08.100Z,96885.97
2023-05-04T09:29:14.346Z,96894.72
2023-05-04T09:30:21.153Z,96870.56
2023-05-04T09:31:26.531Z,96885.69
2023-05-04T09:32:28.650Z,96887.63
2023-05-04T09:33:30.142Z,96883.22
2023-05-04T09:34:32.737Z,96887.34
2023-05-04T09:35:34.692Z,96881.53
2023-05-04T09:36:37.267Z,96879.63
2023-05-04T09:37:48.712Z,96878.84
2023-05-04T09:38:50.159Z,96877.41
2023-05-04T09:39:53.824Z,96882.16
2023-05-04T09:40:56.008Z,96850.22
2023-05-04T09:44:19.660Z,96885.72
2023-05-04T09:45:21.117Z,96863.63
2023-05-04T09:46:23.068Z,96873.59
2023-05-04T09:47:32.206Z,96887.47
2023-05-04T09:48:33.642Z,96883.06
2023-05-04T09:49:36.903Z,96884.25
2023-05-04T09:50:40.095Z,96885.75
2023-05-04T09:51:42.884Z,96889.94
2023-05-04T09:52:45.636Z,96889.47
2023-05-04T09:53:49.070Z,96897.41
2023-05-04T09:54:50.786Z,96890.56
2023-05-04T09:56:03.924Z,96889.03
2023-05-04T09:57:15.787Z,96896.44
2023-05-04T09:58:18.778Z,96884.72
2023-05-04T09:59:21.069Z,96881.81
2023-05-04T10:00:22.651Z,96879.53
2023-05-04T10:01:27.258Z,96882.94
2023-05-04T10:02:28.840Z,96881.84
2023-05-04T10:03:32.017Z,96870.78
2023-05-04T10:04:34.048Z,96869.06
2023-05-04T10:05:39.113Z,96873.72
2023-05-04T10:06:43.264Z,96872.88
2023-05-04T10:07:45.018Z,96880.69
2023-05-04T10:08:49.090Z,96872.84
2023-05-04T10:09:51.408Z,96868.84
2023-05-04T10:10:52.954Z,96866.56
2023-05-04T10:11:55.609Z,96867.75
2023-05-04T10:13:00.187Z,96868.72
2023-05-04T10:14:01.763Z,96864.25
2023-05-04T10:15:07.271Z,96863.78
2023-05-04T10:16:24.868Z,96865.72
2023-05-04T10:17:41.424Z,96872.19
2023-05-04T10:18:55.094Z,96862.78
2023-05-04T10:20:07.327Z,96852.88
2023-05-04T10:21:31.411Z,96865.44
2023-05-04T10:22:50.918Z,96856.31
2023-05-04T10:24:26.388Z,96859.88
2023-05-04T10:25:49.440Z,96858.72
2023-05-04T10:27:13.999Z,96864.00
2023-05-04T10:28:39.482Z,96868.59
2023-05-04T10:29:42.407Z,96863.38
2023-05-04T10:30:44.311Z,96861.56
2023-05-04T10:31:45.950Z,96866.50
2023-05-04T10:32:55.506Z,96852.47
2023-05-04T10:33:57.063Z,96854.19
2023-05-04T10:35:09.094Z,96855.19
2023-05-04T10:36:11.530Z,96849.78
2023-05-04T10:37:18.052Z,96852.06
2023-05-04T10:38:20.194Z,96845.13
2023-05-04T10:39:24.215Z,96852.09
2023-05-04T10:40:41.083Z,96848.44
2023-05-04T10:41:42.489Z,96843.44
2023-05-04T10:42:44.359Z,96842.34
2023-05-04T10:43:51.113Z,96847.25
2023-05-04T10:44:56.760Z,96832.94
2023-05-04T10:45:58.678Z,96828.09
2023-05-04T10:47:05.495Z,96835.56
2023-05-04T10:48:08.748Z,96832.44
2023-05-04T10:49:17.790Z,96823.50
2023-05-04T10:50:19.241Z,96827.16
2023-05-04T10:51:30.151Z,96825.06
2023-05-04T10:52:47.348Z,96834.09
2023-05-04T10:53:48.904Z,96828.44
2023-05-04T10:54:59.785Z,96830.00
2023-05-04T10:56:01.294Z,96833.31
2023-05-04T10:57:04.675Z,96827.16
2023-05-04T10:58:06.582Z,96815.94
2023-05-04T10:59:10.446Z,96820.66
2023-05-04T11:00:12.618Z,96814.84
2023-05-04T11:01:14.210Z,96812.41
2023-05-04T11:02:23.318Z,96819.00
2023-05-04T11:03:25.200Z,96805.56
2023-05-04T11:04:27.021Z,96808.94
2023-05-04T11:05:41.119Z,96803.56
2023-05-04T11:06:42.544Z,96814.75
2023-05-04T11:07:44.322Z,96799.84
2023-05-04T11:08:50.515Z,96802.53
2023-05-04T11:09:51.973Z,96790.78
2023-05-04T11:11:04.768Z,96795.66
2023-05-04T11:12:07.493Z,96806.97
2023-05-04T11:13:15.386Z,96797.44
2023-05-04T11:14:28.358Z,96795.38
2023-05-04T11:15:30.942Z,96793.31
2023-05-04T11:16:32.445Z,96787.22
2023-05-04T11:17:34.483Z,96796.63
2023-05-04T11:18:37.364Z,96796.25
2023-05-04T11:19:49.788Z,96798.00
2023-05-04T11:20:51.336Z,96801.97
2023-05-04T11:21:52.823Z,96798.53
2023-05-04T11:22:54.689Z,96789.09
2023-05-04T11:23:59.709Z,96793.47
2023-05-04T11:25:01.268Z,96789.53
2023-05-04T11:26:08.000Z,96790.25
2023-05-04T11:27:23.561Z,96790.44
2023-05-04T11:28:37.986Z,96787.75
2023-05-04T11:29:39.402Z,96793.56
2023-05-04T11:30:42.143Z,96778.88
2023-05-04T11:31:53.816Z,96789.31
2023-05-04T11:32:57.284Z,96793.38
2023-05-04T11:33:58.722Z,96789.44
2023-05-04T11:35:00.318Z,96782.41
2023-05-04T11:36:01.751Z,96795.44
2023-05-04T11:37:06.414Z,96790.28
2023-05-04T11:38:08.236Z,96783.44
2023-05-04T11:39:09.867Z,96782.66
2023-05-04T11:40:23.179Z,96785.69
2023-05-04T11:41:26.241Z,96780.41
2023-05-04T11:42:27.723Z,96786.31
2023-05-04T11:43:30.017Z,96765.28
2023-05-04T11:44:31.816Z,96786.63
2023-05-04T11:45:35.090Z,96772.66
2023-05-04T11:46:36.844Z,96770.94
2023-05-04T11:47:38.668Z,96772.25
2023-05-04T11:48:40.874Z,96764.28
2023-05-04T11:49:43.807Z,96766.94
2023-05-04T11:50:47.094Z,96768.00
2023-05-04T11:51:48.496Z,96771.66
2023-05-04T11:52:50.182Z,96757.94
2023-05-04T11:53:51.797Z,96768.31
2023-05-04T11:54:57.276Z,96765.22
2023-05-04T11:56:02.211Z,96759.72
2023-05-04T11:57:04.018Z,96755.16
2023-05-04T11:58:08.076Z,96762.91
2023-05-04T11:59:11.106Z,96759.13
2023-05-04T12:00:13.184Z,96759.63
2023-05-04T12:01:14.963Z,96770.13
2023-05-04T12:02:17.490Z,96765.22
2023-05-04T12:03:35.539Z,96756.72
2023-05-04T12:04:45.189Z,96759.13
2023-05-04T12:05:55.243Z,96753.56
2023-05-04T12:06:56.680Z,96753.91
2023-05-04T12:07:58.345Z,96755.31
2023-05-04T12:09:05.661Z,96760.69
2023-05-04T12:10:07.454Z,96760.22
2023-05-04T12:11:12.754Z,96768.66
2023-05-04T12:12:19.197Z,96760.66
2023-05-04T12:13:20.689Z,96755.56
2023-05-04T12:14:24.398Z,96756.34
2023-05-04T12:15:36.551Z,96752.16
2023-05-04T12:16:39.002Z,96753.34
2023-05-04T12:17:42.137Z,96745.31
2023-05-04T12:18:45.340Z,96754.50
2023-05-04T12:19:57.333Z,96760.00
2023-05-04T12:21:08.574Z,96758.91
2023-05-04T12:22:09.984Z,96758.88
2023-05-04T12:23:11.752Z,96748.88
2023-05-04T12:24:13.746Z,96742.78
2023-05-04T12:25:18.279Z,96744.97
2023-05-04T12:26:19.885Z,96748.41
2023-05-04T12:27:21.506Z,96742.72
2023-05-04T12:28:25.230Z,96738.84
2023-05-04T12:29:26.626Z,96750.53
2023-05-04T12:30:28.055Z,96742.84
2023-05-04T12:31:30.291Z,96751.28
2023-05-04T12:32:31.844Z,96750.22
2023-05-04T12:33:34.342Z,96750.44
2023-05-04T12:34:36.944Z,96741.81
2023-05-04T12:35:38.360Z,96744.88
2023-05-04T12:36:39.848Z,96747.53
2023-05-04T12:37:42.059Z,96746.16
2023-05-04T12:38:43.524Z,96741.28
2023-05-04T12:39:46.110Z,96741.31
2023-05-04T12:40:47.655Z,96744.28
2023-05-04T12:41:49.160Z,96738.34
2023-05-04T12:42:50.720Z,96735.41
2023-05-04T12:43:52.195Z,96738.19
2023-05-04T12:44:53.878Z,96731.16
2023-05-04T12:45:55.470Z,96738.03
2023-05-04T12:46:56.982Z,96730.03
2023-05-04T12:47:58.353Z,96723.09
2023-05-04T12:48:59.762Z,96715.03
2023-05-04T12:50:04.842Z,96730.72
2023-05-04T12:51:06.253Z,96728.19
2023-05-04T12:52:08.523Z,96733.56
2023-05-04T12:53:10.546Z,96729.13
2023-05-04T12:54:12.202Z,96719.97
2023-05-04T12:55:13.610Z,96727.38
2023-05-04T12:56:15.149Z,96720.13
2023-05-04T12:57:16.836Z,96721.84
2023-05-04T12:58:18.205Z,96716.59
2023-05-04T12:59:19.906Z,96716.31
2023-05-04T13:00:21.619Z,96714.88
2023-05-04T13:01:23.395Z,96687.03
2023-05-04T13:02:24.930Z,96706.03
2023-05-04T13:03:26.956Z,96697.13
2023-05-04T13:04:28.405Z,96702.63
2023-05-04T13:05:30.861Z,96705.97
2023-05-04T13:06:32.388Z,96701.59
2023-05-04T13:07:34.580Z,96691.31
2023-05-04T13:08:35.901Z,96690.94
2023-05-04T13:09:37.416Z,96689.16
2023-05-04T13:10:38.851Z,96690.53
2023-05-04T13:11:40.278Z,96693.69
2023-05-04T13:12:43.510Z,96688.41
2023-05-04T13:13:46.320Z,96692.03
2023-05-04T13:14:47.703Z,96691.59
2023-05-04T13:15:51.906Z,96682.22
2023-05-04T13:16:53.994Z,96686.44
2023-05-04T13:17:55.707Z,96678.88
2023-05-04T13:18:57.915Z,96678.44
2023-05-04T13:19:59.821Z,96682.03
2023-05-04T13:21:01.191Z,96677.69
2023-05-04T13:22:02.613Z,96675.91
2023-05-04T13:23:04.071Z,96671.50
2023-05-04T13:24:06.021Z,96678.50
2023-05-04T13:25:08.915Z,96666.31
2023-05-04T13:26:10.603Z,96657.59
2023-05-04T13:27:12.128Z,96671.28
2023-05-04T13:28:13.528Z,96664.75
2023-05-04T13:29:15.671Z,96669.09
2023-05-04T13:30:18.281Z,96668.25
2023-05-04T13:31:19.683Z,96674.19
2023-05-04T13:32:21.280Z,96672.03
2023-05-04T13:33:29.523Z,96669.50
2023-05-04T13:34:32.897Z,96655.19
2023-05-04T13:35:34.410Z,96653.56
2023-05-04T13:36:35.908Z,96661.78
2023-05-04T13:37:38.186Z,96656.25
2023-05-04T13:38:39.525Z,96657.88
2023-05-04T13:39:41.444Z,96658.66
2023-05-04T13:40:43.789Z,96660.94
2023-05-04T13:41:45.392Z,96656.66
2023-05-04T13:42:47.054Z,96655.53
2023-05-04T13:43:48.616Z,96664.06
2023-05-04T13:44:49.950Z,96663.47
2023-05-04T13:45:51.435Z,96658.09
2023-05-04T13:46:54.180Z,96663.28
2023-05-04T13:47:55.618Z,96661.41
2023-05-04T13:48:57.267Z,96650.84
2023-05-04T13:49:58.810Z,96652.44
2023-05-04T13:51:03.530Z,96652.63
2023-05-04T13:52:05.411Z,96655.09
2023-05-04T13:53:06.866Z,96650.16
2023-05-04T13:54:08.967Z,96645.06
2023-05-04T13:55:10.493Z,96641.81
2023-05-04T13:56:11.946Z,96640.91
2023-05-04T13:57:13.372Z,96639.66
2023-05-04T13:58:14.753Z,96635.50
2023-05-04T13:59:16.313Z,96626.50
2023-05-04T14:00:18.192Z,96630.19
2023-05-04T14:01:19.786Z,96631.25
2023-05-04T14:02:21.810Z,96613.16
2023-05-04T14:03:23.253Z,96619.44
2023-05-04T14:04:24.633Z,96616.00
2023-05-04T14:05:26.055Z,96619.69
2023-05-04T14:06:29.551Z,96608.22
2023-05-04T14:07:31.198Z,96623.50
2023-05-04T14:08:32.598Z,96614.69
2023-05-04T14:09:33.930Z,96614.03
2023-05-04T14:10:37.341Z,96609.38
2023-05-04T14:11:38.919Z,96607.84
2023-05-04T14:12:40.283Z,96601.19
2023-05-04T14:13:41.648Z,96608.22
2023-05-04T14:14:43.054Z,96598.38
2023-05-04T14:15:45.150Z,96605.13
2023-05-04T14:16:46.893Z,96603.41
2023-05-04T14:17:49.481Z,96595.28
2023-05-04T14:18:50.883Z,96594.75
2023-05-04T14:19:52.207Z,96590.22
2023-05-04T14:20:53.659Z,96597.75
2023-05-04T14:21:55.131Z,96587.56
2023-05-04T14:22:56.570Z,96598.03
2023-05-04T14:23:57.936Z,96584.91
2023-05-04T14:24:59.372Z,96589.66
2023-05-04T14:26:01.140Z,96591.09
2023-05-04T14:27:02.747Z,96578.50
2023-05-04T14:28:04.290Z,96580.09
2023-05-04T14:29:05.670Z,96584.03
2023-05-04T14:30:09.380Z,96581.66
2023-05-04T14:31:10.764Z,96581.50
2023-05-04T14:32:12.328Z,96579.56
2023-05-04T14:33:13.850Z,96566.66
2023-05-04T14:34:15.354Z,96575.44
2023-05-04T14:35:17.658Z,96572.91
2023-05-04T14:36:19.038Z,96577.41
2023-05-04T14:37:20.623Z,96579.19
2023-05-04T14:38:21.978Z,96582.38
2023-05-04T14:39:23.471Z,96564.03
2023-05-04T14:40:24.803Z,96574.53
2023-05-04T14:41:26.235Z,96562.84
2023-05-04T14:42:27.605Z,96572.19
2023-05-04T14:43:28.973Z,96564.75
2023-05-04T14:44:30.456Z,96567.22
2023-05-04T14:45:33.571Z,96566.63
2023-05-04T14:46:34.944Z,96571.13
2023-05-04T14:47:36.606Z,96571.31
2023-05-04T14:48:38.277Z,96574.94
2023-05-04T14:49:42.421Z,96558.47
2023-05-04T14:50:43.954Z,96562.19
2023-05-04T14:51:45.428Z,96562.19
2023-05-04T14:52:47.079Z,96558.75
2023-05-04T14:53:48.586Z,96562.38
2023-05-04T14:54:50.225Z,96560.44
2023-05-04T14:55:51.598Z,96557.44
2023-05-04T14:56:53.187Z,96556.47
2023-05-04T14:57:54.568Z,96556.66
2023-05-04T14:58:57.339Z,96554.84
2023-05-04T14:59:58.679Z,96548.75
2023-05-04T15:01:00.059Z,96555.41
2023-05-04T15:02:02.851Z,96551.59
2023-05-04T15:03:05.290Z,96552.97
2023-05-04T15:04:06.804Z,96555.66
2023-05-04T15:05:12.334Z,96554.59
2023-05-04T15:06:13.746Z,96545.78
2023-05-04T15:07:20.731Z,96552.97
2023-05-04T15:08:22.397Z,96550.03
2023-05-04T15:09:23.957Z,96538.16
2023-05-04T15:10:25.888Z,96536.50
2023-05-04T15:11:27.331Z,96537.59
2023-05-04T15:12:28.843Z,96542.94
2023-05-04T15:13:30.342Z,96546.25
2023-05-04T15:14:31.840Z,96538.22
2023-05-04T15:15:33.383Z,96543.75
2023-05-04T15:16:35.355Z,96537.59
2023-05-04T15:17:37.028Z,96539.94
2023-05-04T15:18:38.422Z,96551.47
2023-05-04T15:19:39.872Z,96544.94
2023-05-04T15:20:41.297Z,96543.09
2023-05-04T15:21:42.682Z,96547.44
2023-05-04T15:22:49.015Z,96553.25
2023-05-04T15:23:50.845Z,96554.63
2023-05-04T15:24:53.712Z,96560.47
2023-05-04T15:25:55.086Z,96556.66
2023-05-04T15:26:57.592Z,96561.81
2023-05-04T15:27:59.006Z,96562.81
2023-05-04T15:29:00.602Z,96562.66
2023-05-04T15:30:02.179Z,96547.44
2023-05-04T15:31:07.133Z,96555.00
2023-05-04T15:32:08.770Z,96552.50
2023-05-04T15:33:10.355Z,96540.91
2023-05-04T15:34:11.959Z,96557.91
2023-05-04T15:35:14.025Z,96547.81
2023-05-04T15:36:15.425Z,96542.78
2023-05-04T15:37:16.856Z,96546.34
2023-05-04T15:38:18.264Z,96536.84
2023-05-04T15:39:19.635Z,96533.75
2023-05-04T15:40:21.178Z,96547.88
2023-05-04T15:41:22.618Z,96553.47
2023-05-04T15:42:23.964Z,96548.13
2023-05-04T15:43:25.317Z,96547.25
2023-05-04T15:44:27.944Z,96552.28
2023-05-04T15:45:29.377Z,96550.19
2023-05-04T15:46:30.808Z,96546.53
2023-05-04T15:47:32.356Z,96550.06
2023-05-04T15:48:33.829Z,96540.00
2023-05-04T15:49:35.278Z,96531.59
2023-05-04T15:50:36.700Z,96555.44
2023-05-04T15:51:38.331Z,96552.72
2023-05-04T15:52:39.686Z,96543.66
2023-05-04T15:53:41.175Z,96550.47
2023-05-04T15:54:42.530Z,96545.78
2023-05-04T15:55:43.867Z,96535.91
2023-05-04T15:56:45.298Z,96538.94
2023-05-04T15:57:46.640Z,96542.63
2023-05-04T15:58:47.996Z,96547.59
2023-05-04T15:59:49.935Z,96532.03
2023-05-04T16:00:52.075Z,96553.03
2023-05-04T16:01:53.780Z,96544.28
2023-05-04T16:02:55.453Z,96542.25
2023-05-04T16:03:59.543Z,96538.38
2023-05-04T16:05:01.218Z,96540.47
2023-05-04T16:06:02.690Z,96536.91
2023-05-04T16:07:04.104Z,96537.38
2023-05-04T16:08:05.570Z,96538.78
2023-05-04T16:09:07.065Z,96529.06
2023-05-04T16:10:09.879Z,96540.75
2023-05-04T16:11:11.786Z,96528.44
2023-05-04T16:12:13.179Z,96533.25
2023-05-04T16:13:14.645Z,96538.25
2023-05-04T16:14:16.232Z,96531.06
2023-05-04T16:15:17.798Z,96526.78
2023-05-04T16:16:19.282Z,96518.16
2023-05-04T16:17:22.308Z,96523.38
2023-05-04T16:18:23.803Z,96491.78
2023-05-04T16:19:25.313Z,96523.78
2023-05-04T16:20:28.697Z,96511.09
2023-05-04T16:21:30.143Z,96524.56
2023-05-04T16:22:32.208Z,96520.13
2023-05-04T16:23:33.635Z,96514.34
2023-05-04T16:24:36.067Z,96515.06
2023-05-04T16:25:37.436Z,96508.91
2023-05-04T16:26:39.270Z,96516.34
2023-05-04T16:27:40.666Z,96503.78
2023-05-04T16:28:42.092Z,96517.47
2023-05-04T16:29:43.742Z,96520.41
2023-05-04T16:30:45.610Z,96516.44
2023-05-04T16:31:48.281Z,96509.72
2023-05-04T16:32:50.026Z,96506.53
2023-05-04T16:33:51.917Z,96510.09
2023-05-04T16:34:53.303Z,96512.84
2023-05-04T16:35:54.705Z,96513.97
2023-05-04T16:36:56.120Z,96522.78
2023-05-04T16:37:58.094Z,96513.22
2023-05-04T16:38:59.562Z,96517.00
2023-05-04T16:40:11.587Z,96513.25
2023-05-04T16:41:13.212Z,96507.94
2023-05-04T16:42:14.535Z,96514.59
2023-05-04T16:43:16.042Z,96513.38
2023-05-04T16:44:17.493Z,96513.53
2023-05-04T16:45:19.012Z,96520.22
2023-05-04T16:46:20.950Z,96516.44
2023-05-04T16:47:22.435Z,96514.03
2023-05-04T16:48:23.851Z,96519.53
2023-05-04T16:49:25.922Z,96517.88
2023-05-04T16:50:27.280Z,96512.72
2023-05-04T16:51:28.825Z,96513.38
2023-05-04T16:52:30.179Z,96512.16
2023-05-04T16:53:31.843Z,96502.31
2023-05-04T16:54:34.134Z,96502.56
2023-05-04T16:55:36.101Z,96511.31
2023-05-04T16:56:37.613Z,96510.88
2023-05-04T16:57:39.910Z,96510.00
2023-05-04T16:58:41.237Z,96510.84
2023-05-04T16:59:42.582Z,96512.00
2023-05-04T17:00:44.002Z,96507.22
2023-05-04T17:01:45.644Z,96490.09
2023-05-04T17:02:47.153Z,96505.53
2023-05-04T17:03:48.699Z,96504.44
2023-05-04T17:04:50.154Z,96497.56
2023-05-04T17:05:51.531Z,96468.81
2023-05-04T17:06:52.876Z,96504.69
2023-05-04T17:07:54.279Z,96498.03
2023-05-04T17:08:55.652Z,96500.19
2023-05-04T17:09:57.036Z,96502.84
2023-05-04T17:10:59.843Z,96498.25
2023-05-04T17:12:02.433Z,96501.78
2023-05-04T17:13:03.907Z,96501.50
2023-05-04T17:14:05.321Z,96495.34
2023-05-04T17:15:07.321Z,96501.31
2023-05-04T17:16:09.417Z,96501.69
2023-05-04T17:17:10.779Z,96499.31
2023-05-04T17:18:12.517Z,96500.19
2023-05-04T17:19:14.056Z,96499.38
2023-05-04T17:20:15.486Z,96499.41
2023-05-04T17:21:17.060Z,96502.19
2023-05-04T17:22:18.544Z,96501.47
2023-05-04T17:23:19.920Z,96506.09
2023-05-04T17:24:21.332Z,96501.78
2023-05-04T17:25:22.715Z,96498.41
2023-05-04T17:26:24.229Z,96493.81
2023-05-04T17:27:25.746Z,96486.69
2023-05-04T17:28:27.876Z,96499.66
